Time;durP1;ratioP1;P1;durP2;ratioP2;P2;SDS_P1;SDS_P2;PMS_P1;PMS_P2;Temp;Humidity;BMP_temperature;BMP_pressure;BME280_temperature;BME280_humidity;BME280_pressure;Samples;Min_cycle;Max_cycle;Signal;HPM_P1;HPM_P2
2022/05/12 00:08:05;;;;;;;;;;;;;;;15.84;79.45;100591.47;20926704;28;20041;-66
2022/05/12 00:18:27;;;;;;;9.43;1.63;;;;;;;15.70;72.82;100620.78;20917392;28;19920;-67
2022/05/12 00:28:49;;;;;;;8.55;1.52;;;;;;;15.49;70.45;100625.28;20931049;28;20613;-66
2022/05/12 00:39:11;;;;;;;12.32;1.77;;;;;;;15.29;70.97;100655.06;20962924;28;20047;-66
2022/05/12 00:49:35;;;;;;;9.20;1.83;;;;;;;15.08;72.31;100712.03;20922102;28;20048;-68
2022/05/12 00:59:58;;;;;;;8.38;1.67;;;;;;;14.69;70.55;100749.53;20936695;28;20106;-67
2022/05/12 01:10:21;;;;;;;5.57;1.10;;;;;;;14.36;72.89;100777.66;20939953;28;20047;-66
2022/05/12 01:20:42;;;;;;;4.13;0.80;;;;;;;14.04;72.57;100812.63;21037754;28;20059;-66
2022/05/12 01:31:04;;;;;;;4.13;0.60;;;;;;;13.77;71.37;100846.22;20993521;28;20115;-68
2022/05/12 01:41:26;;;;;;;3.45;0.80;;;;;;;13.71;72.17;100884.22;20955105;28;20570;-67
2022/05/12 01:51:52;;;;;;;3.67;0.50;;;;;;;13.67;71.65;100898.50;20979582;28;20048;-67
2022/05/12 02:02:14;;;;;;;1.63;0.57;;;;;;;13.62;71.13;100931.22;20936199;28;20101;-67
2022/05/12 02:12:36;;;;;;;3.58;0.95;;;;;;;13.44;72.56;100948.31;20995638;28;20074;-66
2022/05/12 02:22:58;;;;;;;2.53;0.60;;;;;;;13.35;71.67;100974.34;20955781;28;20039;-68
2022/05/12 02:33:20;;;;;;;6.93;1.10;;;;;;;13.29;71.84;100988.72;20966698;28;20065;-66
2022/05/12 02:43:41;;;;;;;4.70;1.10;;;;;;;13.21;71.69;101004.16;20951412;28;20075;-66
2022/05/12 02:54:03;;;;;;;4.67;1.10;;;;;;;13.17;71.62;101028.06;20941123;28;20036;-67
2022/05/12 03:04:26;;;;;;;5.88;1.52;;;;;;;13.09;72.75;101031.22;20941971;28;20417;-66
2022/05/12 03:14:47;;;;;;;5.28;1.58;;;;;;;12.93;72.81;101056.81;20909851;28;20488;-63
2022/05/12 03:25:11;;;;;;;7.43;1.57;;;;;;;12.95;71.78;101091.53;20961722;28;20416;-63
2022/05/12 03:35:33;;;;;;;4.80;1.50;;;;;;;12.92;72.95;101101.38;20944406;28;20060;-63
2022/05/12 03:45:54;;;;;;;5.10;1.38;;;;;;;12.82;71.13;101095.91;20923602;28;20501;-63
2022/05/12 03:56:16;;;;;;;2.87;1.63;;;;;;;12.70;73.23;101107.22;20963445;28;20052;-63
2022/05/12 04:06:38;;;;;;;2.70;1.15;;;;;;;12.67;73.01;101138.81;20943960;28;20282;-63
2022/05/12 04:16:59;;;;;;;4.40;1.30;;;;;;;12.63;73.09;101158.31;20944294;28;20040;-63
2022/05/12 04:27:21;;;;;;;7.10;1.38;;;;;;;12.50;73.46;101167.91;20952608;28;20041;-63
2022/05/12 04:37:47;;;;;;;5.37;1.20;;;;;;;12.41;75.49;101178.16;20923544;28;20047;-64
2022/05/12 04:48:09;;;;;;;4.88;1.70;;;;;;;12.39;72.25;101197.47;20948393;28;20500;-62
2022/05/12 04:58:30;;;;;;;5.68;1.45;;;;;;;12.38;72.78;101203.63;20956191;28;20052;-63
2022/05/12 05:08:52;;;;;;;6.13;1.83;;;;;;;12.48;73.83;101231.69;20958376;28;20045;-62
2022/05/12 05:19:13;;;;;;;8.47;2.10;;;;;;;12.64;73.89;101248.06;20974260;28;20048;-63
2022/05/12 05:29:42;;;;;;;6.57;2.03;;;;;;;12.84;76.87;101261.47;20972124;28;20677;-63
2022/05/12 05:40:05;;;;;;;8.23;2.50;;;;;;;12.92;74.10;101274.94;20971981;28;20048;-63
2022/05/12 06:01:17;;;;;;;7.88;2.25;;;;;;;13.27;73.66;101312.66;20953792;28;20037;-63
2022/05/12 06:11:42;;;;;;;7.35;2.47;;;;;;;13.51;73.10;101326.72;20957362;28;20873;-65
2022/05/12 06:22:04;;;;;;;7.72;2.10;;;;;;;13.71;70.70;101340.13;20915248;28;20299;-63
2022/05/12 06:32:26;;;;;;;9.20;2.20;;;;;;;13.96;70.30;101365.47;20888031;28;1046693;-64
2022/05/12 06:42:49;;;;;;;8.55;2.38;;;;;;;14.25;71.26;101382.63;20941344;28;20047;-63
2022/05/12 06:53:11;;;;;;;10.35;2.33;;;;;;;14.45;69.37;101388.97;20950961;28;20060;-64
2022/05/12 07:03:32;;;;;;;;;;;;;;;14.69;76.49;101410.84;20941229;28;20044;-66
2022/05/12 07:13:54;;;;;;;14.23;2.80;;;;;;;14.77;69.19;101415.53;20946643;28;19972;-64
2022/05/12 07:34:56;;;;;;;6.97;2.20;;;;;;;15.14;68.53;101454.72;20967404;28;20370;-66
2022/05/12 07:45:17;;;;;;;6.82;2.03;;;;;;;15.08;68.70;101452.56;20968544;28;20055;-66
2022/05/12 07:55:39;;;;;;;8.48;2.65;;;;;;;15.33;69.21;101455.09;20979413;28;20147;-65
2022/05/12 08:06:01;;;;;;;;;;;;;;;15.70;70.72;101469.78;20951144;28;20040;-64
2022/05/12 08:16:22;;;;;;;7.83;2.00;;;;;;;15.91;66.54;101476.03;20918781;28;19935;-65
2022/05/12 08:26:44;;;;;;;8.23;2.28;;;;;;;16.16;66.04;101494.25;20947846;28;20044;-65
2022/05/12 08:37:05;;;;;;;5.45;1.65;;;;;;;16.38;63.36;101494.31;20947409;28;20044;-64
2022/05/12 08:47:34;;;;;;;2.50;1.20;;;;;;;16.62;61.94;101515.13;20945738;28;20048;-65
2022/05/12 08:58:00;;;;;;;5.65;1.10;;;;;;;16.60;60.50;101521.47;20927862;28;20044;-65
2022/05/12 09:08:36;;;;;;;6.38;1.30;;;;;;;16.74;59.40;101502.78;20995692;28;20665;-65
2022/05/12 09:19:04;;;;;;;4.15;0.93;;;;;;;17.08;60.10;101513.13;20996925;28;20106;-63
2022/05/12 09:29:31;;;;;;;2.75;0.80;;;;;;;17.36;56.73;101523.16;20904294;28;20656;-65
2022/05/12 09:40:32;;;;;;;2.22;0.90;;;;;;;17.28;52.77;101515.00;20947306;28;20512;-64
2022/05/12 09:51:13;;;;;;;1.60;0.57;;;;;;;17.65;52.87;101513.69;20950340;28;20110;-64
2022/05/12 10:01:49;;;;;;;7.47;0.75;;;;;;;17.81;53.34;101509.66;20941334;28;20056;-64
2022/05/12 10:12:22;;;;;;;3.60;1.00;;;;;;;17.80;53.12;101512.41;20961290;28;20041;-64
2022/05/12 10:22:59;;;;;;;2.40;0.80;;;;;;;18.15;55.11;101512.94;20959417;28;20040;-64
2022/05/12 10:33:32;;;;;;;4.20;0.80;;;;;;;18.78;51.56;101503.78;20953114;28;20045;-64
2022/05/12 10:44:35;;;;;;;3.92;0.90;;;;;;;19.30;51.78;101511.47;20947428;28;20050;-64
2022/05/12 10:55:13;;;;;;;3.67;0.90;;;;;;;19.04;50.48;101523.50;20895125;28;20543;-62
2022/05/12 11:05:53;;;;;;;5.78;1.48;;;;;;;19.48;47.63;101507.97;20973290;28;20048;-64
2022/05/12 11:16:30;;;;;;;3.95;0.85;;;;;;;19.87;49.49;101512.25;20937819;28;20067;-63
2022/05/12 11:26:51;;;;;;;4.80;1.00;;;;;;;20.22;51.88;101519.63;20965851;28;20512;-63
2022/05/12 11:37:53;;;;;;;3.10;0.80;;;;;;;20.68;45.47;101500.06;20909744;28;20047;-64
2022/05/12 11:48:36;;;;;;;5.40;0.95;;;;;;;21.08;42.46;101508.53;20962411;28;20040;-64
2022/05/12 11:59:24;;;;;;;2.97;0.80;;;;;;;21.45;44.31;101502.13;20927566;28;20063;-64
2022/05/12 12:09:46;;;;;;;2.30;0.70;;;;;;;21.81;51.09;101505.63;20987437;28;20075;-64
2022/05/12 12:20:11;;;;;;;4.85;1.00;;;;;;;21.44;53.28;101500.47;20955552;28;20015;-63
2022/05/12 12:31:00;;;;;;;3.08;0.60;;;;;;;21.16;42.51;101490.03;20923245;28;20142;-66
2022/05/12 12:41:30;;;;;;;3.30;0.85;;;;;;;20.94;44.76;101495.78;20918788;28;20049;-65
2022/05/12 12:52:06;;;;;;;4.45;1.02;;;;;;;20.84;47.11;101502.94;20978427;28;20040;-66
2022/05/12 13:02:30;;;;;;;5.18;1.10;;;;;;;20.59;51.17;101493.00;20986142;28;20982;-66
2022/05/12 13:13:04;;;;;;;3.33;1.00;;;;;;;20.33;47.43;101493.78;20932456;28;20052;-66
2022/05/12 13:23:32;;;;;;;2.67;0.93;;;;;;;20.54;48.72;101486.47;20889939;28;20527;-66
2022/05/12 13:33:56;;;;;;;4.63;1.00;;;;;;;20.51;49.21;101484.09;20930928;28;20044;-66
2022/05/12 13:44:21;;;;;;;1.27;0.65;;;;;;;20.69;45.65;101501.72;20917632;28;20048;-67
2022/05/12 13:55:21;;;;;;;2.92;0.90;;;;;;;20.40;41.32;101479.00;20900572;28;20041;-67
2022/05/12 14:05:44;;;;;;;6.40;0.68;;;;;;;20.48;47.60;101466.69;20885609;28;20055;-67
2022/05/12 14:27:10;;;;;;;3.35;0.75;;;;;;;20.21;49.22;101465.81;20894780;28;20051;-68
2022/05/12 14:37:33;;;;;;;4.68;0.93;;;;;;;20.47;47.86;101457.09;20901793;28;20051;-67
2022/05/12 14:48:07;;;;;;;4.05;0.90;;;;;;;20.53;40.92;101475.03;20881188;28;20045;-67
2022/05/12 14:58:29;;;;;;;2.38;0.82;;;;;;;20.59;48.50;101463.03;20936418;28;20055;-67
2022/05/12 15:08:50;;;;;;;2.67;0.90;;;;;;;20.71;45.65;101454.72;20856098;28;20041;-68
2022/05/12 15:19:12;;;;;;;4.63;0.90;;;;;;;20.85;46.82;101450.78;20937168;28;20052;-68
2022/05/12 15:29:34;;;;;;;3.25;0.60;;;;;;;20.82;44.24;101446.59;20927363;28;20155;-67
2022/05/12 15:39:56;;;;;;;4.22;1.05;;;;;;;20.63;46.41;101451.13;20871581;28;20040;-67
2022/05/12 15:50:24;;;;;;;2.30;0.73;;;;;;;20.48;43.26;101456.09;20950828;28;20043;-67
2022/05/12 16:00:46;;;;;;;5.90;0.70;;;;;;;20.65;46.66;101444.72;20892125;28;20041;-68
2022/05/12 16:11:08;;;;;;;3.03;0.90;;;;;;;20.79;44.07;101425.69;20883551;28;20043;-67
2022/05/12 16:21:29;;;;;;;3.65;0.80;;;;;;;20.91;44.30;101435.09;20869026;28;20045;-67
2022/05/12 16:31:53;;;;;;;2.92;0.80;;;;;;;20.85;46.39;101429.56;20876562;28;20048;-67
2022/05/12 16:42:15;;;;;;;3.83;0.98;;;;;;;21.40;45.38;101434.56;20917422;28;20437;-67
2022/05/12 16:52:37;;;;;;;1.73;0.90;;;;;;;21.03;48.78;101425.94;20892157;28;20095;-67
2022/05/12 17:02:59;;;;;;;2.72;0.90;;;;;;;20.48;50.72;101432.25;20937606;28;20045;-67
2022/05/12 17:13:21;;;;;;;4.97;1.00;;;;;;;20.32;49.82;101433.03;20924315;28;20555;-66
2022/05/12 17:23:42;;;;;;;5.30;1.13;;;;;;;21.12;50.41;101435.63;20930017;28;20051;-67
2022/05/12 17:34:04;;;;;;;5.57;0.80;;;;;;;20.72;49.95;101437.00;20931391;28;22075;-67
2022/05/12 17:44:26;;;;;;;3.05;0.85;;;;;;;20.47;52.00;101435.03;20920997;28;20060;-67
2022/05/12 17:54:47;;;;;;;1.90;0.80;;;;;;;20.27;50.96;101448.50;20929736;28;20040;-67
2022/05/12 18:05:11;;;;;;;2.08;0.88;;;;;;;19.87;51.81;101437.34;21000254;28;20037;-67
2022/05/12 18:15:34;;;;;;;7.15;1.23;;;;;;;19.57;50.78;101450.75;21019337;28;20082;-68
2022/05/12 18:25:55;;;;;;;3.72;1.20;;;;;;;19.37;51.99;101454.38;21006909;28;20044;-67
2022/05/12 18:36:17;;;;;;;4.85;1.15;;;;;;;19.18;51.19;101449.09;20985174;28;20041;-67
2022/05/12 18:46:40;;;;;;;4.15;1.02;;;;;;;18.69;54.88;101467.63;20964588;28;20040;-67
2022/05/12 18:57:02;;;;;;;5.95;1.30;;;;;;;18.25;56.46;101487.44;20946273;28;20420;-67
2022/05/12 19:07:26;;;;;;;5.05;1.15;;;;;;;17.90;57.50;101477.22;20906652;28;20055;-67
2022/05/12 19:17:52;;;;;;;7.68;1.40;;;;;;;17.64;57.92;101475.09;20938591;28;20531;-67
2022/05/12 19:28:15;;;;;;;8.00;1.98;;;;;;;17.47;58.41;101483.56;20982268;28;20508;-67
2022/05/12 19:38:38;;;;;;;5.32;1.48;;;;;;;17.24;58.54;101500.41;20981309;28;20101;-67
2022/05/12 19:48:59;;;;;;;6.22;1.48;;;;;;;17.00;59.83;101510.31;20926585;28;20047;-66
2022/05/12 19:59:21;;;;;;;;;;;;;;;16.79;63.23;101485.66;21003167;28;20051;-67
2022/05/12 20:09:45;;;;;;;8.48;2.05;;;;;;;16.73;60.37;101486.16;20965141;28;19924;-67
2022/05/12 20:20:08;;;;;;;;;;;;;;;16.63;64.64;101489.66;20967955;28;20043;-66
2022/05/12 20:30:32;;;;;;;6.03;1.23;;;;;;;16.53;60.80;101479.00;21016837;28;19955;-67
2022/05/12 20:40:55;;;;;;;7.03;1.60;;;;;;;16.40;61.30;101479.25;20990633;28;20040;-67
2022/05/12 20:51:18;;;;;;;4.75;1.23;;;;;;;16.38;61.57;101484.59;20925100;28;20044;-67
2022/05/12 21:01:39;;;;;;;7.00;3.15;;;;;;;16.36;61.76;101490.97;20954030;28;20048;-68
2022/05/12 21:12:01;;;;;;;8.18;2.63;;;;;;;16.36;62.15;101496.22;20915637;28;20067;-67
2022/05/12 21:22:22;;;;;;;;;;;;;;;16.23;68.36;101508.63;20976029;28;20051;-67
2022/05/12 21:32:44;;;;;;;6.20;2.57;;;;;;;16.32;62.16;101500.03;21025672;28;19926;-67
2022/05/12 21:43:06;;;;;;;7.88;2.33;;;;;;;16.18;62.32;101492.34;20953387;28;20501;-66
2022/05/12 21:53:35;;;;;;;7.47;2.00;;;;;;;16.06;62.89;101483.63;20949642;28;20437;-66
2022/05/12 22:04:02;;;;;;;8.98;2.22;;;;;;;15.95;63.21;101493.28;20972055;28;20097;-66
2022/05/12 22:14:24;;;;;;;9.93;2.15;;;;;;;15.94;63.04;101483.72;20959222;28;20037;-66
2022/05/12 22:24:45;;;;;;;7.28;2.13;;;;;;;15.75;63.89;101478.16;20985372;28;20052;-66
2022/05/12 22:35:07;;;;;;;;;;;;;;;15.59;70.74;101469.75;20962098;28;20048;-67
2022/05/12 22:45:29;;;;;;;11.65;2.15;;;;;;;15.54;64.68;101466.63;20970246;28;19920;-67
2022/05/12 22:55:50;;;;;;;11.98;2.70;;;;;;;15.41;64.59;101471.13;20967643;28;20128;-66
2022/05/12 23:06:13;;;;;;;6.63;2.38;;;;;;;15.31;65.06;101456.16;20986220;28;20550;-67
2022/05/12 23:16:34;;;;;;;11.13;2.70;;;;;;;15.25;64.85;101461.81;20950040;28;20044;-66
2022/05/12 23:26:56;;;;;;;;;;;;;;;15.02;70.30;101458.25;20959254;28;20107;-66
2022/05/12 23:37:17;;;;;;;10.10;2.90;;;;;;;14.81;64.47;101446.69;20992317;28;20007;-67
2022/05/12 23:47:39;;;;;;;7.22;2.72;;;;;;;14.59;65.27;101448.34;20924083;28;20041;-66
2022/05/12 23:58:00;;;;;;;9.85;2.75;;;;;;;14.43;65.85;101445.13;20944412;28;20040;-67
